DLH2PH EDDP-EDDH
Flight info
| Callsign | DLH2PH |
|---|---|
| Flight time | 0h 35m |
| Altitude | 26000 |
| Route | PENEM1N PENEM Y233 ODLUN Z207 MAG M736 UBIGI/N0456F280 M736 SOGMA M748 ERNUD M726 BKD L619 BUMIL/N0429F240 M748 RARUP RARUP3S |
| Aircraft | A320/M-SDE3FGHIRWY/LB1 |
Departure
| Time | 2026-04-25 21:36 |
|---|---|
| Airport | Leipzig/Halle Airport (EDDP) |
Arrival
| Time | 2026-04-25 22:11 |
|---|---|
| Airport | Hamburg Helmut Schmidt Airport (EDDH) |
| Time | Latitude | Longitude | Altitude | Speed | Heading |
|---|---|---|---|---|---|
| 2026-04-25 20:56 | 51.41905 | 12.22033 | 443 ft | 0 kts | 16° |
| 2026-04-25 21:24 | 51.41890 | 12.22026 | 434 ft | 4 kts | 11° |
| 2026-04-25 21:24 | 51.41869 | 12.22020 | 437 ft | 4 kts | 15° |
| 2026-04-25 21:25 | 51.41845 | 12.22004 | 437 ft | 4 kts | 34° |
| 2026-04-25 21:25 | 51.41826 | 12.21976 | 431 ft | 4 kts | 63° |
| 2026-04-25 21:25 | 51.41821 | 12.21941 | 435 ft | 2 kts | 104° |
| 2026-04-25 21:25 | 51.41821 | 12.21940 | 435 ft | 1 kts | 104° |
| 2026-04-25 21:26 | 51.41821 | 12.21939 | 435 ft | 0 kts | 104° |
| 2026-04-25 21:28 | 51.41821 | 12.21940 | 435 ft | 0 kts | 104° |
| 2026-04-25 21:28 | 51.41818 | 12.21958 | 437 ft | 6 kts | 104° |
| 2026-04-25 21:29 | 51.41804 | 12.22044 | 450 ft | 7 kts | 105° |
| 2026-04-25 21:29 | 51.41795 | 12.22095 | 448 ft | 3 kts | 105° |
| 2026-04-25 21:29 | 51.41793 | 12.22108 | 448 ft | 0 kts | 105° |
| 2026-04-25 21:29 | 51.41792 | 12.22113 | 448 ft | 3 kts | 105° |
| 2026-04-25 21:30 | 51.41780 | 12.22183 | 450 ft | 10 kts | 105° |
| 2026-04-25 21:30 | 51.41758 | 12.22309 | 452 ft | 11 kts | 105° |
| 2026-04-25 21:30 | 51.41740 | 12.22412 | 456 ft | 10 kts | 105° |
| 2026-04-25 21:30 | 51.41725 | 12.22499 | 458 ft | 15 kts | 105° |
| 2026-04-25 21:31 | 51.41688 | 12.22717 | 463 ft | 16 kts | 105° |
| 2026-04-25 21:31 | 51.41650 | 12.22939 | 461 ft | 23 kts | 105° |
| 2026-04-25 21:31 | 51.41604 | 12.23201 | 462 ft | 25 kts | 103° |
| 2026-04-25 21:31 | 51.41607 | 12.23492 | 462 ft | 27 kts | 86° |
| 2026-04-25 21:32 | 51.41622 | 12.23784 | 466 ft | 27 kts | 85° |
| 2026-04-25 21:32 | 51.41635 | 12.24084 | 473 ft | 27 kts | 86° |
| 2026-04-25 21:32 | 51.41650 | 12.24379 | 474 ft | 28 kts | 86° |
| 2026-04-25 21:32 | 51.41659 | 12.24610 | 475 ft | 16 kts | 86° |
| 2026-04-25 21:33 | 51.41638 | 12.24744 | 473 ft | 11 kts | 141° |
| 2026-04-25 21:33 | 51.41580 | 12.24744 | 473 ft | 8 kts | 192° |
| 2026-04-25 21:33 | 51.41564 | 12.24737 | 472 ft | 0 kts | 194° |
| 2026-04-25 21:34 | 51.41550 | 12.24732 | 472 ft | 7 kts | 194° |
| 2026-04-25 21:34 | 51.41466 | 12.24699 | 469 ft | 14 kts | 192° |
| 2026-04-25 21:35 | 51.41383 | 12.24665 | 473 ft | 10 kts | 207° |
| 2026-04-25 21:35 | 51.41354 | 12.24576 | 472 ft | 9 kts | 263° |
| 2026-04-25 21:35 | 51.41348 | 12.24443 | 470 ft | 18 kts | 265° |
| 2026-04-25 21:35 | 51.41320 | 12.23844 | 467 ft | 90 kts | 266° |
| 2026-04-25 21:36 | 51.41259 | 12.22517 | 458 ft | 146 kts | 265° |
| 2026-04-25 21:36 | 51.41178 | 12.20706 | 741 ft | 171 kts | 270° |
| 2026-04-25 21:36 | 51.41071 | 12.18750 | 1349 ft | 182 kts | 270° |
| 2026-04-25 21:36 | 51.40966 | 12.16729 | 2061 ft | 185 kts | 271° |
| 2026-04-25 21:37 | 51.40870 | 12.14584 | 2543 ft | 200 kts | 271° |
| 2026-04-25 21:37 | 51.40838 | 12.13856 | 2813 ft | 200 kts | 271° |
| 2026-04-25 21:37 | 51.40795 | 12.10184 | 4360 ft | 194 kts | 291° |
| 2026-04-25 21:37 | 51.41613 | 12.08525 | 5150 ft | 200 kts | 327° |
| 2026-04-25 21:38 | 51.43065 | 12.07941 | 5600 ft | 232 kts | 349° |
| 2026-04-25 21:38 | 51.44731 | 12.07866 | 6351 ft | 245 kts | 354° |
| 2026-04-25 21:38 | 51.46466 | 12.07931 | 6888 ft | 252 kts | 355° |
| 2026-04-25 21:38 | 51.48196 | 12.08023 | 7038 ft | 253 kts | 355° |
| 2026-04-25 21:39 | 51.49955 | 12.08102 | 7082 ft | 253 kts | 355° |
| 2026-04-25 21:39 | 51.51710 | 12.08156 | 7088 ft | 252 kts | 354° |
| 2026-04-25 21:39 | 51.53471 | 12.08188 | 7268 ft | 257 kts | 354° |
| 2026-04-25 21:39 | 51.55259 | 12.08241 | 8233 ft | 257 kts | 354° |
| 2026-04-25 21:40 | 51.57057 | 12.08315 | 9186 ft | 259 kts | 354° |
| 2026-04-25 21:40 | 51.58862 | 12.08391 | 10080 ft | 262 kts | 354° |
| 2026-04-25 21:40 | 51.60695 | 12.08464 | 10886 ft | 265 kts | 354° |
| 2026-04-25 21:40 | 51.62566 | 12.08535 | 11498 ft | 278 kts | 354° |
| 2026-04-25 21:41 | 51.64586 | 12.08597 | 11759 ft | 301 kts | 355° |
| 2026-04-25 21:41 | 51.66762 | 12.08659 | 11987 ft | 324 kts | 355° |
| 2026-04-25 21:41 | 51.69062 | 12.08370 | 12123 ft | 339 kts | 343° |
| 2026-04-25 21:41 | 51.71308 | 12.07051 | 12283 ft | 352 kts | 329° |
| 2026-04-25 21:42 | 51.73519 | 12.05239 | 12722 ft | 361 kts | 335° |
| 2026-04-25 21:42 | 51.75929 | 12.03945 | 13313 ft | 367 kts | 338° |
| 2026-04-25 21:42 | 51.78365 | 12.02655 | 13927 ft | 370 kts | 338° |
| 2026-04-25 21:42 | 51.80819 | 12.01326 | 14464 ft | 373 kts | 338° |
| 2026-04-25 21:43 | 51.83283 | 11.99988 | 15003 ft | 375 kts | 338° |
| 2026-04-25 21:43 | 51.85764 | 11.98641 | 15553 ft | 378 kts | 338° |
| 2026-04-25 21:43 | 51.88266 | 11.97282 | 16082 ft | 380 kts | 338° |
| 2026-04-25 21:43 | 51.90782 | 11.95918 | 16621 ft | 383 kts | 338° |
| 2026-04-25 21:44 | 51.93313 | 11.94549 | 17249 ft | 382 kts | 338° |
| 2026-04-25 21:44 | 51.95831 | 11.93190 | 17890 ft | 382 kts | 338° |
| 2026-04-25 21:44 | 52.00036 | 11.90919 | 18685 ft | 385 kts | 338° |
| 2026-04-25 21:45 | 52.02585 | 11.89536 | 19008 ft | 387 kts | 338° |
| 2026-04-25 21:45 | 52.04279 | 11.88616 | 19068 ft | 387 kts | 338° |
| 2026-04-25 21:45 | 52.07694 | 11.86762 | 19096 ft | 387 kts | 338° |
| 2026-04-25 21:45 | 52.10248 | 11.85377 | 19076 ft | 387 kts | 338° |
| 2026-04-25 21:46 | 52.12810 | 11.83985 | 19101 ft | 389 kts | 338° |
| 2026-04-25 21:46 | 52.15382 | 11.82583 | 19099 ft | 390 kts | 338° |
| 2026-04-25 21:46 | 52.17953 | 11.81180 | 19160 ft | 390 kts | 338° |
| 2026-04-25 21:46 | 52.20530 | 11.79769 | 19622 ft | 390 kts | 338° |
| 2026-04-25 21:47 | 52.23106 | 11.78358 | 20073 ft | 391 kts | 338° |
| 2026-04-25 21:47 | 52.25694 | 11.76940 | 20470 ft | 393 kts | 338° |
| 2026-04-25 21:47 | 52.28294 | 11.75513 | 20846 ft | 396 kts | 338° |
| 2026-04-25 21:47 | 52.30909 | 11.74075 | 21208 ft | 398 kts | 338° |
| 2026-04-25 21:48 | 52.33541 | 11.72628 | 21567 ft | 400 kts | 338° |
| 2026-04-25 21:48 | 52.34316 | 11.72201 | 21675 ft | 401 kts | 338° |
| 2026-04-25 21:48 | 52.36012 | 11.71268 | 21891 ft | 402 kts | 338° |
| 2026-04-25 21:49 | 52.38670 | 11.69799 | 22225 ft | 404 kts | 338° |
| 2026-04-25 21:49 | 52.41340 | 11.68321 | 22547 ft | 406 kts | 338° |
| 2026-04-25 21:49 | 52.44022 | 11.66840 | 22930 ft | 407 kts | 338° |
| 2026-04-25 21:49 | 52.46708 | 11.65356 | 23303 ft | 408 kts | 338° |
| 2026-04-25 21:50 | 52.49410 | 11.63861 | 23627 ft | 410 kts | 338° |
| 2026-04-25 21:50 | 52.52118 | 11.62354 | 23908 ft | 412 kts | 338° |
| 2026-04-25 21:50 | 52.54746 | 11.60658 | 24065 ft | 410 kts | 330° |
| 2026-04-25 21:50 | 52.57043 | 11.57935 | 24107 ft | 408 kts | 316° |
| 2026-04-25 21:51 | 52.58951 | 11.54471 | 24090 ft | 410 kts | 312° |
| 2026-04-25 21:51 | 52.60830 | 11.50926 | 24112 ft | 411 kts | 312° |
| 2026-04-25 21:51 | 52.62702 | 11.47363 | 24113 ft | 412 kts | 312° |
| 2026-04-25 21:51 | 52.64570 | 11.43790 | 24111 ft | 412 kts | 312° |
| 2026-04-25 21:52 | 52.66439 | 11.40214 | 24111 ft | 412 kts | 312° |
| 2026-04-25 21:52 | 52.68308 | 11.36640 | 24116 ft | 412 kts | 312° |
| 2026-04-25 21:52 | 52.70179 | 11.33061 | 24109 ft | 412 kts | 312° |
| 2026-04-25 21:52 | 52.72048 | 11.29486 | 24138 ft | 411 kts | 312° |
| 2026-04-25 21:53 | 52.73910 | 11.25923 | 24115 ft | 409 kts | 312° |
| 2026-04-25 21:53 | 52.75767 | 11.22367 | 23966 ft | 407 kts | 312° |
| 2026-04-25 21:53 | 52.77578 | 11.18892 | 23676 ft | 389 kts | 312° |
| 2026-04-25 21:53 | 52.79307 | 11.15557 | 23271 ft | 376 kts | 312° |
| 2026-04-25 21:54 | 52.80978 | 11.12323 | 22833 ft | 364 kts | 312° |
| 2026-04-25 21:54 | 52.82598 | 11.09189 | 22437 ft | 354 kts | 312° |
| 2026-04-25 21:54 | 52.84175 | 11.06139 | 22031 ft | 344 kts | 312° |
| 2026-04-25 21:54 | 52.85714 | 11.03169 | 21644 ft | 336 kts | 312° |
| 2026-04-25 21:55 | 52.87216 | 11.00274 | 21265 ft | 328 kts | 312° |
| 2026-04-25 21:55 | 52.88683 | 10.97440 | 20890 ft | 321 kts | 312° |
| 2026-04-25 21:55 | 52.90118 | 10.94661 | 20517 ft | 314 kts | 312° |
| 2026-04-25 21:55 | 52.91524 | 10.91933 | 20146 ft | 308 kts | 312° |
| 2026-04-25 21:56 | 52.92903 | 10.89251 | 19784 ft | 303 kts | 312° |
| 2026-04-25 21:56 | 52.93802 | 10.87499 | 19539 ft | 300 kts | 312° |
| 2026-04-25 21:56 | 52.95589 | 10.84012 | 19049 ft | 294 kts | 312° |
| 2026-04-25 21:56 | 52.96904 | 10.81444 | 18701 ft | 290 kts | 312° |
| 2026-04-25 21:57 | 52.98200 | 10.78917 | 18354 ft | 286 kts | 312° |
| 2026-04-25 21:57 | 52.99481 | 10.76418 | 17949 ft | 282 kts | 312° |
| 2026-04-25 21:57 | 53.00748 | 10.73941 | 17471 ft | 291 kts | 313° |
| 2026-04-25 21:57 | 53.02142 | 10.71229 | 16616 ft | 325 kts | 312° |
| 2026-04-25 21:58 | 53.03670 | 10.68254 | 15811 ft | 351 kts | 312° |
| 2026-04-25 21:58 | 53.05269 | 10.65128 | 15038 ft | 350 kts | 312° |
| 2026-04-25 21:58 | 53.06795 | 10.62114 | 14304 ft | 333 kts | 312° |
| 2026-04-25 21:58 | 53.08250 | 10.59221 | 13521 ft | 320 kts | 312° |
| 2026-04-25 21:59 | 53.09650 | 10.56437 | 12711 ft | 308 kts | 312° |
| 2026-04-25 21:59 | 53.11004 | 10.53749 | 11919 ft | 298 kts | 312° |
| 2026-04-25 21:59 | 53.12316 | 10.51148 | 11145 ft | 289 kts | 312° |
| 2026-04-25 22:00 | 53.14850 | 10.46154 | 9603 ft | 276 kts | 311° |
| 2026-04-25 22:00 | 53.16075 | 10.43731 | 8790 ft | 271 kts | 311° |
| 2026-04-25 22:00 | 53.17279 | 10.41347 | 8044 ft | 265 kts | 311° |
| 2026-04-25 22:00 | 53.18410 | 10.39098 | 7691 ft | 248 kts | 311° |
| 2026-04-25 22:01 | 53.19540 | 10.37046 | 7318 ft | 233 kts | 320° |
| 2026-04-25 22:01 | 53.20857 | 10.35611 | 6949 ft | 221 kts | 332° |
| 2026-04-25 22:01 | 53.22206 | 10.34491 | 6583 ft | 213 kts | 332° |
| 2026-04-25 22:01 | 53.23099 | 10.33741 | 6318 ft | 212 kts | 332° |
| 2026-04-25 22:02 | 53.24839 | 10.32275 | 5795 ft | 212 kts | 333° |
| 2026-04-25 22:02 | 53.26153 | 10.31165 | 5405 ft | 212 kts | 333° |
| 2026-04-25 22:02 | 53.27463 | 10.30054 | 5019 ft | 211 kts | 333° |
| 2026-04-25 22:02 | 53.28775 | 10.28940 | 4632 ft | 213 kts | 334° |
| 2026-04-25 22:03 | 53.30094 | 10.27821 | 4239 ft | 213 kts | 334° |
| 2026-04-25 22:03 | 53.31403 | 10.26708 | 4031 ft | 210 kts | 334° |
| 2026-04-25 22:03 | 53.32711 | 10.25594 | 4032 ft | 212 kts | 334° |
| 2026-04-25 22:03 | 53.34027 | 10.24474 | 4031 ft | 212 kts | 334° |
| 2026-04-25 22:04 | 53.35343 | 10.23351 | 4030 ft | 212 kts | 334° |
| 2026-04-25 22:04 | 53.36660 | 10.22225 | 4028 ft | 212 kts | 334° |
| 2026-04-25 22:04 | 53.37976 | 10.21102 | 4029 ft | 212 kts | 334° |
| 2026-04-25 22:04 | 53.39295 | 10.19978 | 4028 ft | 213 kts | 334° |
| 2026-04-25 22:05 | 53.40603 | 10.18865 | 4032 ft | 206 kts | 335° |
| 2026-04-25 22:05 | 53.41865 | 10.17790 | 4029 ft | 203 kts | 334° |
| 2026-04-25 22:05 | 53.43114 | 10.16723 | 4025 ft | 197 kts | 334° |
| 2026-04-25 22:05 | 53.44298 | 10.15708 | 3921 ft | 188 kts | 334° |
| 2026-04-25 22:06 | 53.45447 | 10.14744 | 3605 ft | 181 kts | 335° |
| 2026-04-25 22:06 | 53.46584 | 10.13862 | 3206 ft | 179 kts | 337° |
| 2026-04-25 22:06 | 53.47687 | 10.13041 | 3069 ft | 170 kts | 336° |
| 2026-04-25 22:06 | 53.48753 | 10.12224 | 3004 ft | 167 kts | 336° |
| 2026-04-25 22:07 | 53.49806 | 10.11408 | 2939 ft | 166 kts | 334° |
| 2026-04-25 22:07 | 53.50476 | 10.10788 | 2922 ft | 166 kts | 331° |
| 2026-04-25 22:07 | 53.51798 | 10.09432 | 2777 ft | 166 kts | 331° |
| 2026-04-25 22:07 | 53.52811 | 10.08504 | 2583 ft | 166 kts | 333° |
| 2026-04-25 22:08 | 53.53831 | 10.07602 | 2341 ft | 165 kts | 332° |
| 2026-04-25 22:08 | 53.54802 | 10.06719 | 2160 ft | 150 kts | 331° |
| 2026-04-25 22:08 | 53.55663 | 10.05938 | 2122 ft | 135 kts | 332° |
| 2026-04-25 22:08 | 53.56491 | 10.05243 | 2030 ft | 131 kts | 334° |
| 2026-04-25 22:09 | 53.57310 | 10.04592 | 1735 ft | 128 kts | 334° |
| 2026-04-25 22:09 | 53.58080 | 10.03937 | 1422 ft | 121 kts | 331° |
| 2026-04-25 22:09 | 53.58809 | 10.03307 | 1145 ft | 118 kts | 331° |
| 2026-04-25 22:09 | 53.59543 | 10.02659 | 851 ft | 120 kts | 327° |
| 2026-04-25 22:10 | 53.60269 | 10.02003 | 630 ft | 122 kts | 328° |
| 2026-04-25 22:10 | 53.61030 | 10.01337 | 490 ft | 125 kts | 331° |
| 2026-04-25 22:10 | 53.61817 | 10.00654 | 330 ft | 126 kts | 329° |
| 2026-04-25 22:10 | 53.62615 | 9.99966 | 155 ft | 130 kts | 328° |
| 2026-04-25 22:11 | 53.63383 | 9.99295 | 46 ft | 111 kts | 333° |
| 2026-04-25 22:11 | 53.63923 | 9.98829 | 41 ft | 63 kts | 333° |
| 2026-04-25 22:11 | 53.64186 | 9.98606 | 42 ft | 33 kts | 333° |
| 2026-04-25 22:11 | 53.64388 | 9.98435 | 39 ft | 33 kts | 335° |
| 2026-04-25 22:12 | 53.64587 | 9.98376 | 40 ft | 22 kts | 6° |
| 2026-04-25 22:12 | 53.64686 | 9.98412 | 40 ft | 14 kts | 38° |
| 2026-04-25 22:12 | 53.64668 | 9.98529 | 39 ft | 11 kts | 144° |
| 2026-04-25 22:12 | 53.64624 | 9.98568 | 41 ft | 10 kts | 153° |
| 2026-04-25 22:13 | 53.64512 | 9.98662 | 41 ft | 20 kts | 153° |
| 2026-04-25 22:13 | 53.64361 | 9.98794 | 42 ft | 26 kts | 152° |
| 2026-04-25 22:13 | 53.64192 | 9.98939 | 42 ft | 28 kts | 152° |
| 2026-04-25 22:13 | 53.64012 | 9.99095 | 43 ft | 30 kts | 153° |
| 2026-04-25 22:14 | 53.63853 | 9.99233 | 43 ft | 23 kts | 150° |
| 2026-04-25 22:14 | 53.63739 | 9.99401 | 44 ft | 21 kts | 128° |
| 2026-04-25 22:14 | 53.63658 | 9.99592 | 45 ft | 19 kts | 124° |
| 2026-04-25 22:14 | 53.63585 | 9.99762 | 46 ft | 17 kts | 126° |
| 2026-04-25 22:15 | 53.63516 | 9.99920 | 44 ft | 17 kts | 126° |
| 2026-04-25 22:15 | 53.63454 | 10.00070 | 46 ft | 15 kts | 125° |
| 2026-04-25 22:15 | 53.63394 | 10.00201 | 46 ft | 14 kts | 134° |
| 2026-04-25 22:16 | 53.63293 | 10.00301 | 46 ft | 5 kts | 96° |
| 2026-04-25 22:16 | 53.63286 | 10.00329 | 46 ft | 2 kts | 139° |
| 2026-04-25 22:16 | 53.63283 | 10.00340 | 43 ft | 0 kts | 112° |
| 2026-04-25 22:16 | 53.63283 | 10.00365 | 46 ft | 2 kts | 89° |
| 2026-04-25 22:17 | 53.63283 | 10.00377 | 46 ft | 0 kts | 88° |